OEABW LOWW-LZIB
Flight info
| Callsign | OEABW |
|---|---|
| Flight time | 0h 20m |
| Altitude | 5000 |
| Route | LOWW/29 WW005 |
| Aircraft | DA62/L-SDFGRY/C |
Departure
| Time | 2026-04-26 18:31 |
|---|---|
| Airport | Vienna International Airport (LOWW) |
Arrival
| Time | 2026-04-26 18:51 |
|---|---|
| Airport | M. R. Štefánik Airport (LZIB) |
| Time | Latitude | Longitude | Altitude | Speed | Heading |
|---|---|---|---|---|---|
| 2026-04-26 18:06 | 48.12559 | 16.53569 | 563 ft | 0 kts | 297° |
| 2026-04-26 18:17 | 48.12563 | 16.53559 | 563 ft | 3 kts | 294° |
| 2026-04-26 18:17 | 48.12561 | 16.53525 | 563 ft | 4 kts | 240° |
| 2026-04-26 18:17 | 48.12532 | 16.53503 | 564 ft | 4 kts | 186° |
| 2026-04-26 18:17 | 48.12495 | 16.53502 | 564 ft | 5 kts | 185° |
| 2026-04-26 18:18 | 48.12449 | 16.53503 | 564 ft | 6 kts | 156° |
| 2026-04-26 18:18 | 48.12419 | 16.53556 | 564 ft | 8 kts | 114° |
| 2026-04-26 18:18 | 48.12399 | 16.53620 | 564 ft | 8 kts | 116° |
| 2026-04-26 18:18 | 48.12376 | 16.53695 | 564 ft | 10 kts | 114° |
| 2026-04-26 18:19 | 48.12346 | 16.53784 | 564 ft | 12 kts | 118° |
| 2026-04-26 18:19 | 48.12316 | 16.53875 | 564 ft | 14 kts | 115° |
| 2026-04-26 18:19 | 48.12284 | 16.53975 | 564 ft | 15 kts | 115° |
| 2026-04-26 18:19 | 48.12250 | 16.54081 | 564 ft | 16 kts | 115° |
| 2026-04-26 18:20 | 48.12212 | 16.54195 | 563 ft | 17 kts | 114° |
| 2026-04-26 18:20 | 48.12172 | 16.54317 | 564 ft | 18 kts | 115° |
| 2026-04-26 18:20 | 48.12133 | 16.54438 | 567 ft | 17 kts | 118° |
| 2026-04-26 18:20 | 48.12120 | 16.54476 | 568 ft | 16 kts | 116° |
| 2026-04-26 18:21 | 48.12058 | 16.54666 | 573 ft | 15 kts | 117° |
| 2026-04-26 18:21 | 48.12021 | 16.54780 | 574 ft | 16 kts | 117° |
| 2026-04-26 18:21 | 48.11983 | 16.54898 | 574 ft | 16 kts | 115° |
| 2026-04-26 18:21 | 48.11942 | 16.55028 | 575 ft | 17 kts | 117° |
| 2026-04-26 18:22 | 48.11899 | 16.55155 | 577 ft | 17 kts | 116° |
| 2026-04-26 18:22 | 48.11856 | 16.55289 | 577 ft | 18 kts | 116° |
| 2026-04-26 18:22 | 48.11810 | 16.55431 | 577 ft | 18 kts | 115° |
| 2026-04-26 18:22 | 48.11762 | 16.55583 | 577 ft | 19 kts | 117° |
| 2026-04-26 18:23 | 48.11717 | 16.55718 | 577 ft | 20 kts | 116° |
| 2026-04-26 18:23 | 48.11706 | 16.55751 | 577 ft | 20 kts | 115° |
| 2026-04-26 18:23 | 48.11653 | 16.55916 | 578 ft | 19 kts | 116° |
| 2026-04-26 18:23 | 48.11601 | 16.56077 | 582 ft | 19 kts | 116° |
| 2026-04-26 18:24 | 48.11552 | 16.56232 | 585 ft | 18 kts | 116° |
| 2026-04-26 18:24 | 48.11503 | 16.56382 | 589 ft | 17 kts | 115° |
| 2026-04-26 18:24 | 48.11455 | 16.56521 | 593 ft | 15 kts | 118° |
| 2026-04-26 18:24 | 48.11412 | 16.56656 | 596 ft | 15 kts | 117° |
| 2026-04-26 18:25 | 48.11366 | 16.56798 | 596 ft | 16 kts | 118° |
| 2026-04-26 18:25 | 48.11315 | 16.56952 | 598 ft | 14 kts | 115° |
| 2026-04-26 18:25 | 48.11269 | 16.57096 | 598 ft | 16 kts | 116° |
| 2026-04-26 18:25 | 48.11216 | 16.57260 | 597 ft | 18 kts | 116° |
| 2026-04-26 18:26 | 48.11159 | 16.57436 | 594 ft | 10 kts | 118° |
| 2026-04-26 18:26 | 48.11136 | 16.57500 | 593 ft | 2 kts | 120° |
| 2026-04-26 18:26 | 48.11112 | 16.57526 | 593 ft | 6 kts | 168° |
| 2026-04-26 18:26 | 48.11076 | 16.57522 | 593 ft | 0 kts | 188° |
| 2026-04-26 18:27 | 48.11071 | 16.57521 | 593 ft | 2 kts | 188° |
| 2026-04-26 18:27 | 48.11045 | 16.57504 | 593 ft | 5 kts | 208° |
| 2026-04-26 18:27 | 48.10990 | 16.57464 | 594 ft | 14 kts | 207° |
| 2026-04-26 18:27 | 48.10963 | 16.57412 | 596 ft | 0 kts | 264° |
| 2026-04-26 18:28 | 48.10965 | 16.57387 | 596 ft | 2 kts | 290° |
| 2026-04-26 18:28 | 48.10965 | 16.57385 | 596 ft | 0 kts | 292° |
| 2026-04-26 18:29 | 48.10992 | 16.57306 | 597 ft | 37 kts | 301° |
| 2026-04-26 18:30 | 48.11153 | 16.56750 | 641 ft | 77 kts | 302° |
| 2026-04-26 18:30 | 48.11360 | 16.56115 | 802 ft | 81 kts | 307° |
| 2026-04-26 18:30 | 48.11605 | 16.55493 | 934 ft | 95 kts | 309° |
| 2026-04-26 18:30 | 48.11914 | 16.54752 | 1123 ft | 102 kts | 308° |
| 2026-04-26 18:31 | 48.12250 | 16.53958 | 1359 ft | 105 kts | 309° |
| 2026-04-26 18:31 | 48.12708 | 16.53207 | 1464 ft | 113 kts | 336° |
| 2026-04-26 18:31 | 48.13508 | 16.53162 | 1488 ft | 128 kts | 19° |
| 2026-04-26 18:31 | 48.14182 | 16.54006 | 1543 ft | 138 kts | 42° |
| 2026-04-26 18:32 | 48.14877 | 16.54690 | 1621 ft | 127 kts | 12° |
| 2026-04-26 18:32 | 48.15603 | 16.54474 | 1757 ft | 106 kts | 324° |
| 2026-04-26 18:32 | 48.15830 | 16.53620 | 1882 ft | 105 kts | 269° |
| 2026-04-26 18:32 | 48.15485 | 16.52780 | 1404 ft | 147 kts | 223° |
| 2026-04-26 18:33 | 48.14654 | 16.52535 | 1428 ft | 123 kts | 158° |
| 2026-04-26 18:33 | 48.14171 | 16.53212 | 1403 ft | 102 kts | 114° |
| 2026-04-26 18:33 | 48.13861 | 16.54057 | 1241 ft | 103 kts | 107° |
| 2026-04-26 18:33 | 48.13630 | 16.54887 | 1120 ft | 99 kts | 103° |
| 2026-04-26 18:34 | 48.13407 | 16.55671 | 1063 ft | 92 kts | 106° |
| 2026-04-26 18:34 | 48.13140 | 16.56404 | 1010 ft | 93 kts | 109° |
| 2026-04-26 18:34 | 48.12920 | 16.57182 | 1014 ft | 94 kts | 101° |
| 2026-04-26 18:34 | 48.12780 | 16.57988 | 1070 ft | 90 kts | 83° |
| 2026-04-26 18:35 | 48.12868 | 16.58806 | 1166 ft | 91 kts | 66° |
| 2026-04-26 18:35 | 48.13005 | 16.59627 | 1269 ft | 95 kts | 68° |
| 2026-04-26 18:35 | 48.13129 | 16.60582 | 1384 ft | 100 kts | 72° |
| 2026-04-26 18:35 | 48.13251 | 16.61605 | 1473 ft | 112 kts | 73° |
| 2026-04-26 18:36 | 48.13295 | 16.62842 | 1487 ft | 129 kts | 86° |
| 2026-04-26 18:36 | 48.13248 | 16.64206 | 1490 ft | 139 kts | 86° |
| 2026-04-26 18:36 | 48.13181 | 16.65628 | 1483 ft | 145 kts | 88° |
| 2026-04-26 18:36 | 48.13026 | 16.67100 | 1487 ft | 150 kts | 95° |
| 2026-04-26 18:37 | 48.12833 | 16.68655 | 1484 ft | 152 kts | 94° |
| 2026-04-26 18:37 | 48.12633 | 16.70184 | 1480 ft | 152 kts | 93° |
| 2026-04-26 18:37 | 48.12420 | 16.71739 | 1472 ft | 152 kts | 95° |
| 2026-04-26 18:37 | 48.12214 | 16.73281 | 1483 ft | 152 kts | 94° |
| 2026-04-26 18:38 | 48.12004 | 16.74844 | 1483 ft | 152 kts | 95° |
| 2026-04-26 18:38 | 48.11872 | 16.75864 | 1481 ft | 152 kts | 94° |
| 2026-04-26 18:38 | 48.11659 | 16.77405 | 1481 ft | 152 kts | 95° |
| 2026-04-26 18:38 | 48.11446 | 16.78950 | 1482 ft | 152 kts | 95° |
| 2026-04-26 18:39 | 48.11240 | 16.80494 | 1494 ft | 152 kts | 95° |
| 2026-04-26 18:39 | 48.11034 | 16.82064 | 1484 ft | 153 kts | 95° |
| 2026-04-26 18:39 | 48.10818 | 16.83613 | 1481 ft | 153 kts | 96° |
| 2026-04-26 18:39 | 48.10608 | 16.85179 | 1480 ft | 153 kts | 94° |
| 2026-04-26 18:40 | 48.10395 | 16.86727 | 1482 ft | 152 kts | 95° |
| 2026-04-26 18:40 | 48.10191 | 16.88287 | 1514 ft | 150 kts | 95° |
| 2026-04-26 18:40 | 48.09983 | 16.89777 | 1631 ft | 144 kts | 94° |
| 2026-04-26 18:40 | 48.09770 | 16.91202 | 1744 ft | 140 kts | 95° |
| 2026-04-26 18:41 | 48.09571 | 16.92619 | 1870 ft | 137 kts | 94° |
| 2026-04-26 18:41 | 48.09363 | 16.93993 | 1975 ft | 136 kts | 95° |
| 2026-04-26 18:41 | 48.09160 | 16.95397 | 2001 ft | 140 kts | 95° |
| 2026-04-26 18:41 | 48.09253 | 16.96774 | 1998 ft | 131 kts | 53° |
| 2026-04-26 18:42 | 48.09874 | 16.97689 | 2013 ft | 126 kts | 28° |
| 2026-04-26 18:42 | 48.10620 | 16.98376 | 2078 ft | 124 kts | 25° |
| 2026-04-26 18:42 | 48.11385 | 16.98889 | 2183 ft | 118 kts | 17° |
| 2026-04-26 18:42 | 48.12163 | 16.99223 | 2319 ft | 114 kts | 12° |
| 2026-04-26 18:43 | 48.12925 | 16.99499 | 2442 ft | 112 kts | 7° |
| 2026-04-26 18:43 | 48.13690 | 16.99573 | 2578 ft | 111 kts | 0° |
| 2026-04-26 18:43 | 48.14467 | 16.99598 | 2689 ft | 111 kts | 0° |
| 2026-04-26 18:43 | 48.15265 | 16.99617 | 2656 ft | 122 kts | 0° |
| 2026-04-26 18:44 | 48.16159 | 16.99640 | 2532 ft | 132 kts | 1° |
| 2026-04-26 18:44 | 48.17067 | 16.99708 | 2502 ft | 133 kts | 11° |
| 2026-04-26 18:44 | 48.17757 | 17.00625 | 2500 ft | 139 kts | 60° |
| 2026-04-26 18:44 | 48.17793 | 17.01991 | 2502 ft | 142 kts | 92° |
| 2026-04-26 18:45 | 48.17599 | 17.03369 | 2513 ft | 138 kts | 96° |
| 2026-04-26 18:45 | 48.17103 | 17.04509 | 2491 ft | 140 kts | 139° |
| 2026-04-26 18:45 | 48.16537 | 17.04966 | 2500 ft | 135 kts | 151° |
| 2026-04-26 18:45 | 48.15784 | 17.05476 | 2544 ft | 119 kts | 153° |
| 2026-04-26 18:46 | 48.15070 | 17.05936 | 2500 ft | 110 kts | 154° |
| 2026-04-26 18:46 | 48.14403 | 17.06409 | 2496 ft | 105 kts | 149° |
| 2026-04-26 18:46 | 48.13740 | 17.06904 | 2470 ft | 108 kts | 143° |
| 2026-04-26 18:46 | 48.13296 | 17.07726 | 2409 ft | 103 kts | 98° |
| 2026-04-26 18:47 | 48.13306 | 17.08650 | 2346 ft | 94 kts | 59° |
| 2026-04-26 18:47 | 48.13423 | 17.09556 | 2286 ft | 101 kts | 77° |
| 2026-04-26 18:47 | 48.13370 | 17.10543 | 2175 ft | 107 kts | 88° |
| 2026-04-26 18:47 | 48.13338 | 17.10923 | 2124 ft | 108 kts | 86° |
| 2026-04-26 18:48 | 48.13302 | 17.11410 | 2109 ft | 104 kts | 84° |
| 2026-04-26 18:48 | 48.13189 | 17.12470 | 1951 ft | 105 kts | 93° |
| 2026-04-26 18:48 | 48.13081 | 17.13435 | 1682 ft | 95 kts | 82° |
| 2026-04-26 18:48 | 48.13126 | 17.14271 | 1466 ft | 83 kts | 71° |
| 2026-04-26 18:49 | 48.13206 | 17.14810 | 1327 ft | 78 kts | 61° |
| 2026-04-26 18:49 | 48.13378 | 17.15543 | 1183 ft | 73 kts | 57° |
| 2026-04-26 18:49 | 48.13614 | 17.16212 | 1130 ft | 73 kts | 51° |
| 2026-04-26 18:49 | 48.13882 | 17.16849 | 1087 ft | 70 kts | 45° |
| 2026-04-26 18:50 | 48.14206 | 17.17404 | 1028 ft | 72 kts | 40° |
| 2026-04-26 18:50 | 48.14572 | 17.17906 | 958 ft | 72 kts | 35° |
| 2026-04-26 18:50 | 48.14952 | 17.18424 | 867 ft | 75 kts | 37° |
| 2026-04-26 18:50 | 48.15351 | 17.18950 | 739 ft | 78 kts | 33° |
| 2026-04-26 18:51 | 48.15751 | 17.19489 | 604 ft | 77 kts | 39° |
| 2026-04-26 18:51 | 48.16135 | 17.20034 | 488 ft | 74 kts | 38° |
| 2026-04-26 18:51 | 48.16487 | 17.20529 | 426 ft | 58 kts | 38° |
| 2026-04-26 18:51 | 48.16737 | 17.20876 | 423 ft | 41 kts | 46° |
| 2026-04-26 18:52 | 48.16920 | 17.21132 | 423 ft | 30 kts | 25° |
| 2026-04-26 18:52 | 48.17025 | 17.21224 | 423 ft | 0 kts | 304° |
| 2026-04-26 18:52 | 48.17057 | 17.21174 | 423 ft | 16 kts | 312° |
| 2026-04-26 18:52 | 48.17123 | 17.21035 | 423 ft | 0 kts | 271° |
| 2026-04-26 18:53 | 48.17107 | 17.20985 | 423 ft | 14 kts | 230° |
| 2026-04-26 18:53 | 48.17060 | 17.20909 | 423 ft | 0 kts | 227° |
| 2026-04-26 18:54 | 48.17053 | 17.20899 | 423 ft | 4 kts | 225° |
| 2026-04-26 18:54 | 48.17009 | 17.20831 | 423 ft | 13 kts | 225° |
| 2026-04-26 18:54 | 48.16932 | 17.20713 | 425 ft | 18 kts | 226° |
| 2026-04-26 18:55 | 48.16837 | 17.20566 | 426 ft | 16 kts | 236° |
| 2026-04-26 18:55 | 48.16798 | 17.20513 | 426 ft | 1 kts | 215° |
| 2026-04-26 18:55 | 48.16760 | 17.20457 | 426 ft | 12 kts | 224° |
| 2026-04-26 18:55 | 48.16675 | 17.20337 | 426 ft | 20 kts | 222° |
| 2026-04-26 18:56 | 48.16547 | 17.20169 | 426 ft | 27 kts | 221° |
| 2026-04-26 18:56 | 48.16403 | 17.19974 | 427 ft | 25 kts | 217° |
| 2026-04-26 18:56 | 48.16410 | 17.19841 | 429 ft | 11 kts | 312° |
| 2026-04-26 18:56 | 48.16447 | 17.19755 | 429 ft | 8 kts | 304° |
| 2026-04-26 18:57 | 48.16473 | 17.19696 | 429 ft | 5 kts | 298° |
| 2026-04-26 18:57 | 48.16483 | 17.19666 | 429 ft | 5 kts | 295° |
| 2026-04-26 18:57 | 48.16505 | 17.19627 | 430 ft | 7 kts | 20° |
| 2026-04-26 18:57 | 48.16515 | 17.19640 | 430 ft | 0 kts | 60° |